»·PEaware :: N5413E KSMX-KBFL

N5413E :: KSMX-KBFL

FLIGHT INFORMATION

Flight Status: Arrived
Operator: Privately registered:
United States
More flights under this callsign
Pilot: Rob F. (20595)
Aircraft: CESSNA 172 SKYHAWK
(C172)
More flights by this aircraft type
Origin: KSMX Santa Maria Pub/Capt Hancock
United States
Destination: KBFL Meadows
United States
More flights between these airports :: More routes between these airports
Route: DCT
File this flight plan on PilotEdge
Remarks: CAT 5
Altitude:
(Current/Filed)
7,500ft
Speed:
(Current/Filed)
120kts
Departed: 01-Oct-18 10:19 PM
Arrived: 01-Oct-18 11:02 PM
Distance/Time
Traveled:
76nm/0:43
Distance/Time
To Go:
Arrived

Flight Plot

Page will automatically refresh every two minutes.


Map Options




Map Legend


Flown Route
Filed Route
Departure Airport
Arrival Airport
Navaid (VOR, NDB)
Fix

Horizontal Profiles

Position Reports

Time Latitude Longitude Heading Altitude Ground
Speed
01-Oct-18 22:12 34.896045 -120.445663 316 264ft 0kts
01-Oct-18 22:13 34.896047 -120.445666 316 264ft 0kts
01-Oct-18 22:14 34.896050 -120.445669 316 264ft 0kts
01-Oct-18 22:15 34.896052 -120.445672 316 264ft 0kts
01-Oct-18 22:16 34.896055 -120.445675 316 264ft 0kts
01-Oct-18 22:17 34.896060 -120.445881 228 264ft 6kts
01-Oct-18 22:18 34.893449 -120.445274 181 264ft 0kts
01-Oct-18 22:19 34.893444 -120.445275 181 264ft 0kts
01-Oct-18 22:20 34.892945 -120.445677 246 264ft 11kts
01-Oct-18 22:21 34.905981 -120.454472 20 777ft 86kts
01-Oct-18 22:22 34.928375 -120.442302 22 1725ft 100kts
01-Oct-18 22:23 34.938560 -120.412924 70 2688ft 96kts
01-Oct-18 22:24 34.948706 -120.383797 65 3682ft 90kts
01-Oct-18 22:25 34.958555 -120.357313 64 4677ft 77kts
01-Oct-18 22:26 34.966623 -120.335682 64 5572ft 69kts
01-Oct-18 22:27 34.975233 -120.312555 65 6317ft 81kts
01-Oct-18 22:28 34.985275 -120.285551 65 7021ft 92kts
01-Oct-18 22:29 34.996498 -120.255330 65 7476ft 111kts
01-Oct-18 22:30 35.009866 -120.219257 65 7512ft 118kts
01-Oct-18 22:31 35.023668 -120.182047 65 7504ft 121kts
01-Oct-18 22:32 35.037616 -120.144403 65 7503ft 121kts
01-Oct-18 22:33 35.051573 -120.106693 65 7503ft 121kts
01-Oct-18 22:34 35.065487 -120.069055 65 7503ft 121kts
01-Oct-18 22:35 35.079426 -120.031304 65 7503ft 121kts
01-Oct-18 22:36 35.093316 -119.993641 65 7503ft 121kts
01-Oct-18 22:37 35.107208 -119.955928 65 7503ft 121kts
01-Oct-18 22:38 35.121090 -119.918196 65 7502ft 121kts
01-Oct-18 22:39 35.134969 -119.880430 65 7503ft 121kts
01-Oct-18 22:40 35.148803 -119.842739 65 7558ft 117kts
01-Oct-18 22:41 35.162418 -119.805600 65 7508ft 125kts
01-Oct-18 22:42 35.176463 -119.767239 65 7499ft 122kts
01-Oct-18 22:43 35.190326 -119.729338 65 7500ft 121kts
01-Oct-18 22:44 35.204138 -119.691529 65 7500ft 121kts
01-Oct-18 22:45 35.217940 -119.653703 65 7500ft 122kts
01-Oct-18 22:46 35.231771 -119.615750 66 7500ft 121kts
01-Oct-18 22:47 35.245553 -119.577889 66 7500ft 122kts
01-Oct-18 22:48 35.259333 -119.539988 66 7500ft 122kts
01-Oct-18 22:49 35.273112 -119.502041 66 7500ft 121kts
01-Oct-18 22:50 35.286854 -119.464154 66 7500ft 121kts
01-Oct-18 22:51 35.300819 -119.425588 66 7283ft 128kts
01-Oct-18 22:52 35.314993 -119.386368 66 6612ft 121kts
01-Oct-18 22:53 35.328709 -119.348411 66 5933ft 122kts
01-Oct-18 22:54 35.342482 -119.310253 66 5236ft 122kts
01-Oct-18 22:55 35.356247 -119.272068 66 4538ft 122kts
01-Oct-18 22:56 35.370033 -119.233782 66 3840ft 123kts
01-Oct-18 22:57 35.383831 -119.195417 66 3141ft 123kts
01-Oct-18 22:58 35.397631 -119.157003 66 2441ft 123kts
01-Oct-18 22:59 35.407401 -119.118094 103 1837ft 116kts
01-Oct-18 23:00 35.397881 -119.082566 109 1611ft 107kts
01-Oct-18 23:01 35.393310 -119.049573 52 1415ft 104kts
01-Oct-18 23:02 35.408141 -119.030220 0 1315ft 71kts
01-Oct-18 23:03 35.424403 -119.044884 314 749ft 69kts
01-Oct-18 23:04 35.435940 -119.058387 15 510ft 14kts
01-Oct-18 23:05 35.434946 -119.055256 134 510ft 16kts
01-Oct-18 23:06 35.431089 -119.050589 132 510ft 22kts
01-Oct-18 23:07 35.431629 -119.047826 227 510ft 0kts
01-Oct-18 23:08 35.431629 -119.047827 227 510ft 0kts
01-Oct-18 23:09 35.431629 -119.047827 227 510ft 0kts
01-Oct-18 23:10 35.431629 -119.047827 227 510ft 0kts
01-Oct-18 23:11 35.431629 -119.047827 227 510ft 0kts
01-Oct-18 23:12 35.431629 -119.047827 227 510ft 0kts
01-Oct-18 23:13 35.431629 -119.047827 227 510ft 0kts
01-Oct-18 23:14 35.431629 -119.047827 227 510ft 0kts
01-Oct-18 23:15 35.431629 -119.047827 227 510ft 0kts
01-Oct-18 23:16 35.431629 -119.047827 227 510ft 0kts
01-Oct-18 23:17 35.431629 -119.047827 227 510ft 0kts
01-Oct-18 23:18 35.431629 -119.047827 227 510ft 0kts
01-Oct-18 23:19 35.431629 -119.047827 227 510ft 0kts

Navigation Log

Ident Type
1. KSMX Airport
2. KBFL Airport